createdAt,value
2022-12-22T00:00:38.652Z,66.07
2022-12-22T00:03:32.499Z,66.01
2022-12-22T00:06:19.393Z,66.69
2022-12-22T00:09:05.909Z,66.91
2022-12-22T00:11:52.105Z,66.04
2022-12-22T00:14:37.793Z,66.32
2022-12-22T00:17:35.848Z,66.68
2022-12-22T00:20:30.292Z,66.51
2022-12-22T00:23:17.660Z,66.21
2022-12-22T00:26:03.596Z,66.24
2022-12-22T00:28:49.725Z,66.29
2022-12-22T00:31:36.774Z,67.03
2022-12-22T00:34:24.835Z,68.16
2022-12-22T00:40:36.092Z,68.62
2022-12-22T00:43:21.880Z,68.88
2022-12-22T00:46:07.992Z,69.97
2022-12-22T00:48:54.008Z,69.67
2022-12-22T00:51:41.541Z,70.15
2022-12-22T00:54:32.289Z,70.01
2022-12-22T00:57:20.121Z,69.75
2022-12-22T01:00:06.744Z,70.00
2022-12-22T01:02:52.780Z,70.91
2022-12-22T01:05:38.453Z,70.36
2022-12-22T01:08:24.400Z,70.93
2022-12-22T01:11:10.006Z,70.89
2022-12-22T01:13:57.207Z,70.75
2022-12-22T01:16:43.133Z,71.65
2022-12-22T01:19:28.634Z,71.81
2022-12-22T01:22:15.484Z,71.33
2022-12-22T01:25:03.444Z,72.23
2022-12-22T01:27:49.200Z,72.10
2022-12-22T01:30:36.376Z,72.24
2022-12-22T01:33:21.956Z,72.92
2022-12-22T01:36:07.800Z,72.39
2022-12-22T01:38:53.453Z,72.64
2022-12-22T01:41:39.809Z,72.87
2022-12-22T01:44:33.609Z,72.53
2022-12-22T01:47:53.913Z,72.52
2022-12-22T01:50:50.139Z,72.63
2022-12-22T01:53:39.491Z,73.10
2022-12-22T01:56:25.991Z,73.21
2022-12-22T01:59:17.747Z,73.08
2022-12-22T02:02:04.208Z,72.88
2022-12-22T02:05:04.238Z,73.12
2022-12-22T02:08:08.731Z,72.99
2022-12-22T02:11:21.547Z,72.79
2022-12-22T02:14:29.454Z,72.79
2022-12-22T02:17:25.903Z,73.04
2022-12-22T02:20:52.544Z,73.24
2022-12-22T02:23:54.549Z,72.92
2022-12-22T02:26:49.125Z,73.10
2022-12-22T02:29:39.165Z,73.27
2022-12-22T02:32:25.315Z,72.95
2022-12-22T02:35:11.109Z,73.57
2022-12-22T02:38:07.915Z,73.06
2022-12-22T02:41:01.437Z,72.66
2022-12-22T02:44:08.832Z,72.72
2022-12-22T02:47:05.607Z,72.49
2022-12-22T02:49:58.782Z,72.81
2022-12-22T02:52:50.139Z,73.07
2022-12-22T02:55:36.269Z,72.73
2022-12-22T02:58:21.976Z,72.51
2022-12-22T03:01:09.446Z,72.85
2022-12-22T03:03:55.265Z,72.63
2022-12-22T03:06:41.119Z,72.15
2022-12-22T03:09:27.669Z,72.07
2022-12-22T03:12:13.356Z,72.60
2022-12-22T03:14:58.842Z,71.63
2022-12-22T03:17:46.206Z,72.34
2022-12-22T03:20:32.078Z,72.15
2022-12-22T03:23:22.873Z,71.86
2022-12-22T03:25:54.314Z,71.65
2022-12-22T03:28:48.754Z,71.62
2022-12-22T03:31:16.947Z,72.04
2022-12-22T03:33:46.449Z,71.73
2022-12-22T03:36:14.453Z,71.38
2022-12-22T03:38:42.465Z,72.26
2022-12-22T03:41:30.929Z,72.40
2022-12-22T03:44:16.495Z,71.41
2022-12-22T03:46:44.584Z,71.92
2022-12-22T03:49:14.031Z,71.24
2022-12-22T03:51:44.982Z,71.54
2022-12-22T03:54:15.086Z,71.68
2022-12-22T03:56:44.090Z,71.83
2022-12-22T03:59:12.784Z,71.32
2022-12-22T04:01:46.945Z,71.65
2022-12-22T04:04:18.781Z,72.21
2022-12-22T04:06:48.220Z,71.90
2022-12-22T04:09:16.321Z,71.57
2022-12-22T04:12:04.155Z,72.46
2022-12-22T04:14:34.623Z,71.94
2022-12-22T04:17:03.513Z,72.02
2022-12-22T04:19:33.217Z,71.79
2022-12-22T04:22:01.663Z,72.05
2022-12-22T04:24:29.849Z,71.97
2022-12-22T04:26:57.895Z,72.37
2022-12-22T04:29:25.899Z,72.32
2022-12-22T04:31:54.083Z,72.74
2022-12-22T04:34:22.174Z,72.46
2022-12-22T04:36:51.523Z,72.59
2022-12-22T04:39:23.796Z,72.66
2022-12-22T04:41:51.821Z,72.74
2022-12-22T04:44:19.863Z,72.67
2022-12-22T04:46:49.248Z,72.16
2022-12-22T04:49:17.239Z,72.48
2022-12-22T04:51:45.307Z,72.55
2022-12-22T04:54:14.799Z,72.49
2022-12-22T04:56:42.838Z,72.85
2022-12-22T04:59:10.896Z,72.99
2022-12-22T05:01:39.961Z,72.11
2022-12-22T05:04:08.125Z,72.18
2022-12-22T05:06:36.136Z,72.89
2022-12-22T05:09:04.265Z,72.57
2022-12-22T05:11:33.623Z,73.13
2022-12-22T05:14:07.066Z,73.08
2022-12-22T05:16:35.616Z,72.98
2022-12-22T05:19:03.847Z,72.61
2022-12-22T05:21:31.878Z,72.77
2022-12-22T05:24:00.102Z,73.38
2022-12-22T05:26:28.196Z,73.03
2022-12-22T05:28:57.600Z,73.15
2022-12-22T05:31:27.328Z,73.26
2022-12-22T05:33:55.440Z,73.32
2022-12-22T05:36:23.561Z,72.68
2022-12-22T05:38:51.566Z,72.67
2022-12-22T05:41:19.735Z,73.30
2022-12-22T05:43:47.849Z,72.50
2022-12-22T05:46:17.252Z,73.13
2022-12-22T05:48:45.334Z,72.67
2022-12-22T05:51:13.474Z,72.72
2022-12-22T05:53:42.211Z,72.73
2022-12-22T05:56:13.306Z,72.71
2022-12-22T05:58:41.402Z,72.50
2022-12-22T06:01:12.303Z,72.33
2022-12-22T06:03:41.762Z,72.34
2022-12-22T06:06:09.840Z,72.43
2022-12-22T06:08:37.898Z,72.02
2022-12-22T06:11:06.329Z,72.01
2022-12-22T06:13:34.562Z,71.81
2022-12-22T06:16:02.697Z,71.25
2022-12-22T06:18:32.410Z,71.44
2022-12-22T06:21:01.787Z,70.75
2022-12-22T06:23:29.907Z,71.13
2022-12-22T06:25:59.390Z,70.45
2022-12-22T06:28:28.539Z,71.05
2022-12-22T06:30:57.041Z,70.70
2022-12-22T06:33:25.107Z,70.31
2022-12-22T06:35:58.719Z,70.00
2022-12-22T06:38:29.355Z,70.02
2022-12-22T06:40:57.490Z,70.43
2022-12-22T06:43:24.631Z,70.23
2022-12-22T06:45:53.376Z,69.59
2022-12-22T06:48:21.664Z,69.63
2022-12-22T06:50:49.722Z,69.81
2022-12-22T06:53:17.989Z,69.95
2022-12-22T06:55:48.270Z,68.91
2022-12-22T06:58:16.367Z,69.15
2022-12-22T07:00:48.440Z,69.12
2022-12-22T07:03:16.706Z,69.34
2022-12-22T07:05:45.196Z,69.06
2022-12-22T07:08:14.271Z,69.20
2022-12-22T07:11:00.702Z,70.19
2022-12-22T07:13:33.911Z,70.02
2022-12-22T07:16:02.782Z,69.68
2022-12-22T07:18:33.143Z,69.35
2022-12-22T07:21:02.881Z,69.30
2022-12-22T07:23:31.757Z,69.48
2022-12-22T07:26:01.179Z,69.38
2022-12-22T07:28:34.598Z,69.10
2022-12-22T07:31:27.795Z,68.88
2022-12-22T07:33:55.929Z,69.05
2022-12-22T07:36:24.191Z,68.63
2022-12-22T07:38:53.188Z,68.60
2022-12-22T07:41:39.424Z,67.92
2022-12-22T07:44:12.476Z,67.98
2022-12-22T07:46:41.370Z,68.54
2022-12-22T07:49:29.986Z,68.87
2022-12-22T07:51:58.991Z,69.06
2022-12-22T07:54:28.988Z,69.22
2022-12-22T07:56:58.302Z,68.86
2022-12-22T07:59:27.853Z,68.50
2022-12-22T08:01:56.001Z,68.84
2022-12-22T08:04:24.411Z,67.96
2022-12-22T08:06:52.534Z,67.66
2022-12-22T08:09:22.899Z,67.84
2022-12-22T08:11:51.105Z,68.01
2022-12-22T08:14:19.110Z,68.24
2022-12-22T08:16:48.641Z,67.73
2022-12-22T08:19:16.762Z,67.69
2022-12-22T08:21:52.148Z,67.78
2022-12-22T08:24:21.256Z,67.65
2022-12-22T08:26:54.879Z,68.10
2022-12-22T08:29:29.138Z,68.54
2022-12-22T08:31:59.004Z,67.89
2022-12-22T08:34:27.101Z,67.55
2022-12-22T08:36:58.857Z,67.61
2022-12-22T08:39:31.706Z,67.59
2022-12-22T08:42:00.929Z,68.44
2022-12-22T08:44:31.061Z,68.30
2022-12-22T08:47:01.508Z,67.34
2022-12-22T08:49:29.712Z,67.94
2022-12-22T08:51:58.229Z,67.36
2022-12-22T08:54:26.341Z,67.39
2022-12-22T08:56:54.438Z,67.14
2022-12-22T08:59:22.556Z,66.59
2022-12-22T09:01:51.260Z,66.06
2022-12-22T09:04:22.912Z,66.24
2022-12-22T09:06:54.007Z,65.93
2022-12-22T09:09:22.560Z,66.42
2022-12-22T09:11:51.602Z,67.29
2022-12-22T09:14:45.087Z,67.50
2022-12-22T09:17:37.078Z,68.76
2022-12-22T09:20:31.772Z,69.64
2022-12-22T09:23:01.291Z,69.39
2022-12-22T09:25:30.117Z,70.14
2022-12-22T09:27:59.600Z,69.41
2022-12-22T09:30:51.621Z,70.31
2022-12-22T09:33:19.958Z,70.42
2022-12-22T09:35:49.348Z,70.31
2022-12-22T09:38:17.419Z,70.40
2022-12-22T09:40:45.622Z,70.30
2022-12-22T09:43:18.009Z,70.35
2022-12-22T09:45:47.028Z,70.46
2022-12-22T09:48:15.724Z,70.55
2022-12-22T09:50:43.974Z,70.58
2022-12-22T09:53:21.718Z,70.70
2022-12-22T09:55:52.104Z,70.94
2022-12-22T09:58:27.012Z,70.76
2022-12-22T10:01:08.286Z,70.67
2022-12-22T10:03:46.460Z,71.38
2022-12-22T10:06:22.247Z,71.91
2022-12-22T10:08:54.344Z,71.65
2022-12-22T10:11:22.596Z,71.46
2022-12-22T10:13:50.632Z,71.66
2022-12-22T10:16:23.009Z,72.44
2022-12-22T10:19:07.278Z,72.34
2022-12-22T10:21:44.642Z,72.16
2022-12-22T10:24:28.062Z,72.64
2022-12-22T10:27:00.162Z,72.70
2022-12-22T10:29:29.688Z,73.22
2022-12-22T10:32:02.174Z,72.48
2022-12-22T10:34:31.281Z,72.78
2022-12-22T10:37:04.718Z,72.82
2022-12-22T10:39:38.387Z,72.86
2022-12-22T10:42:20.650Z,72.64
2022-12-22T10:44:50.694Z,73.00
2022-12-22T10:47:24.168Z,72.25
2022-12-22T10:52:30.995Z,72.84
2022-12-22T10:58:07.638Z,73.25
2022-12-22T11:00:35.816Z,73.06
2022-12-22T11:03:07.096Z,73.27
2022-12-22T11:05:35.577Z,73.31
2022-12-22T11:08:17.832Z,73.37
2022-12-22T11:10:53.843Z,73.45
2022-12-22T11:13:55.109Z,73.12
2022-12-22T11:16:34.095Z,74.46
2022-12-22T11:19:31.096Z,74.01
2022-12-22T11:22:08.750Z,73.88
2022-12-22T11:24:47.618Z,73.88
2022-12-22T11:27:42.327Z,73.72
2022-12-22T11:30:20.031Z,73.68
2022-12-22T11:33:15.904Z,73.39
2022-12-22T11:35:57.576Z,73.62
2022-12-22T11:38:45.748Z,73.31
2022-12-22T11:41:32.094Z,73.17
2022-12-22T11:44:28.454Z,73.31
2022-12-22T11:47:06.494Z,73.28
2022-12-22T11:49:53.441Z,73.28
2022-12-22T11:52:49.012Z,72.50
2022-12-22T11:55:30.244Z,72.92
2022-12-22T11:58:14.530Z,73.00
2022-12-22T12:01:14.061Z,71.98
2022-12-22T12:04:21.828Z,72.20
2022-12-22T12:07:26.032Z,71.77
2022-12-22T12:10:15.789Z,71.74
2022-12-22T12:12:53.945Z,71.40
2022-12-22T12:15:33.360Z,70.96
2022-12-22T12:18:37.607Z,70.99
2022-12-22T12:21:27.515Z,71.18
2022-12-22T12:24:30.316Z,70.67
2022-12-22T12:27:32.184Z,71.13
2022-12-22T12:30:38.917Z,70.92
2022-12-22T12:33:16.760Z,70.76
2022-12-22T12:35:58.071Z,70.52
2022-12-22T12:39:07.287Z,70.49
2022-12-22T12:41:38.814Z,70.39
2022-12-22T12:44:10.432Z,70.49
2022-12-22T12:47:09.414Z,70.49
2022-12-22T12:50:06.767Z,70.08
2022-12-22T12:53:14.870Z,71.28
2022-12-22T12:56:07.019Z,71.44
2022-12-22T12:58:53.663Z,70.71
2022-12-22T13:02:00.696Z,70.09
2022-12-22T13:05:29.811Z,69.18
2022-12-22T13:08:16.848Z,69.64
2022-12-22T13:12:01.707Z,69.39
2022-12-22T13:14:56.054Z,69.47
2022-12-22T13:17:50.390Z,68.77
2022-12-22T13:20:26.343Z,68.22
2022-12-22T13:22:56.133Z,67.88
2022-12-22T13:25:28.096Z,68.15
2022-12-22T13:27:59.305Z,68.18
2022-12-22T13:30:31.444Z,68.23
2022-12-22T13:33:02.300Z,67.40
2022-12-22T13:35:43.055Z,68.17
2022-12-22T13:38:30.326Z,67.35
2022-12-22T13:40:59.660Z,67.67
2022-12-22T13:43:33.139Z,67.08
2022-12-22T13:46:04.260Z,66.96
2022-12-22T13:48:45.097Z,67.65
2022-12-22T13:51:21.527Z,67.72
2022-12-22T13:54:08.232Z,67.25
2022-12-22T13:56:41.878Z,67.70
2022-12-22T13:59:27.102Z,67.19
2022-12-22T14:02:00.486Z,66.88
2022-12-22T14:04:29.384Z,66.47
2022-12-22T14:06:57.726Z,66.57
2022-12-22T14:09:27.059Z,66.57
2022-12-22T14:11:58.994Z,66.00
2022-12-22T14:14:32.069Z,66.06
2022-12-22T14:17:02.355Z,66.03
2022-12-22T14:19:36.045Z,65.41
2022-12-22T14:22:11.178Z,65.30
2022-12-22T14:24:45.795Z,65.67
2022-12-22T14:27:24.061Z,65.35
2022-12-22T14:29:53.726Z,65.39
2022-12-22T14:32:39.255Z,65.41
2022-12-22T14:35:27.066Z,65.70
2022-12-22T14:37:57.304Z,65.62
2022-12-22T14:40:33.858Z,65.41
2022-12-22T14:43:06.573Z,65.65
2022-12-22T14:45:36.081Z,65.57
2022-12-22T14:48:11.233Z,65.42
2022-12-22T14:50:40.424Z,65.80
2022-12-22T14:53:08.628Z,65.62
2022-12-22T14:55:40.721Z,65.34
2022-12-22T14:58:16.346Z,65.06
2022-12-22T15:00:48.360Z,65.49
2022-12-22T15:03:34.065Z,64.69
2022-12-22T15:06:24.697Z,65.20
2022-12-22T15:08:54.133Z,64.96
2022-12-22T15:11:25.118Z,64.75
2022-12-22T15:13:53.406Z,65.33
2022-12-22T15:16:24.894Z,64.25
2022-12-22T15:18:53.935Z,64.66
2022-12-22T15:21:22.916Z,64.99
2022-12-22T15:23:51.089Z,64.87
2022-12-22T15:26:19.103Z,64.96
2022-12-22T15:28:47.123Z,64.50
2022-12-22T15:31:17.691Z,64.37
2022-12-22T15:33:47.385Z,64.47
2022-12-22T15:36:15.759Z,64.69
2022-12-22T15:38:43.831Z,64.69
2022-12-22T15:41:11.910Z,64.32
2022-12-22T15:46:28.011Z,64.28
2022-12-22T15:48:57.468Z,64.40
2022-12-22T15:51:28.972Z,64.17
2022-12-22T15:53:58.249Z,64.55
2022-12-22T15:56:29.411Z,64.74
2022-12-22T15:58:58.141Z,64.73
2022-12-22T16:01:30.836Z,64.44
2022-12-22T16:04:00.285Z,64.67
2022-12-22T16:06:28.372Z,64.61
2022-12-22T16:08:56.382Z,64.63
2022-12-22T16:11:24.499Z,63.89
2022-12-22T16:13:53.492Z,64.67
2022-12-22T16:16:21.645Z,65.02
2022-12-22T16:18:54.578Z,64.86
2022-12-22T16:21:32.377Z,64.30
2022-12-22T16:24:03.857Z,65.12
2022-12-22T16:26:32.695Z,64.95
2022-12-22T16:29:00.823Z,64.91
2022-12-22T16:31:29.256Z,64.53
2022-12-22T16:33:59.958Z,64.43
2022-12-22T16:36:29.320Z,64.34
2022-12-22T16:38:57.818Z,65.04
2022-12-22T16:41:26.850Z,65.15
2022-12-22T16:44:03.809Z,65.22
2022-12-22T16:46:38.605Z,64.98
2022-12-22T16:49:09.991Z,64.62
2022-12-22T16:51:49.267Z,64.47
2022-12-22T16:54:17.475Z,64.33
2022-12-22T16:56:46.916Z,65.03
2022-12-22T16:59:15.317Z,65.37
2022-12-22T17:01:48.518Z,64.88
2022-12-22T17:04:22.466Z,65.60
2022-12-22T17:06:53.179Z,65.75
2022-12-22T17:09:29.421Z,65.06
2022-12-22T17:11:59.362Z,65.25
2022-12-22T17:14:35.365Z,65.67
2022-12-22T17:17:07.057Z,65.36
2022-12-22T17:19:35.054Z,65.44
2022-12-22T17:22:06.021Z,65.54
2022-12-22T17:24:34.414Z,65.96
2022-12-22T17:27:06.837Z,66.44
2022-12-22T17:29:36.052Z,66.86
2022-12-22T17:32:04.159Z,66.97
2022-12-22T17:34:33.398Z,67.07
2022-12-22T17:37:01.851Z,67.50
2022-12-22T17:39:32.656Z,68.16
2022-12-22T17:42:00.696Z,67.56
2022-12-22T17:44:28.785Z,68.67
2022-12-22T17:46:57.222Z,68.80
2022-12-22T17:49:29.359Z,68.62
2022-12-22T17:51:58.699Z,69.09
2022-12-22T17:54:28.430Z,68.67
2022-12-22T17:57:02.477Z,69.42
2022-12-22T17:59:30.777Z,69.36
2022-12-22T18:01:58.929Z,69.84
2022-12-22T18:04:26.983Z,69.39
2022-12-22T18:06:55.909Z,68.79
2022-12-22T18:09:27.093Z,69.16
2022-12-22T18:11:56.689Z,69.04
2022-12-22T18:14:24.765Z,69.27
2022-12-22T18:16:52.979Z,69.40
2022-12-22T18:19:21.087Z,69.27
2022-12-22T18:21:49.684Z,69.03
2022-12-22T18:24:19.873Z,69.31
2022-12-22T18:26:47.929Z,69.37
2022-12-22T18:29:17.821Z,69.15
2022-12-22T18:31:46.477Z,69.68
2022-12-22T18:34:14.655Z,69.11
2022-12-22T18:36:45.412Z,69.11
2022-12-22T18:39:20.153Z,69.43
2022-12-22T18:41:48.433Z,68.87
2022-12-22T18:44:18.641Z,69.32
2022-12-22T18:46:47.605Z,69.39
2022-12-22T18:49:15.896Z,68.75
2022-12-22T18:51:44.928Z,68.95
2022-12-22T18:54:28.827Z,69.09
2022-12-22T18:56:56.872Z,68.89
2022-12-22T18:59:28.905Z,68.82
2022-12-22T19:02:02.940Z,69.28
2022-12-22T19:04:31.116Z,68.89
2022-12-22T19:06:59.471Z,69.37
2022-12-22T19:09:27.788Z,68.53
2022-12-22T19:11:55.879Z,68.71
2022-12-22T19:14:24.063Z,68.56
2022-12-22T19:16:54.721Z,69.33
2022-12-22T19:19:22.955Z,69.11
2022-12-22T19:21:51.028Z,69.17
2022-12-22T19:24:19.055Z,68.70
2022-12-22T19:26:47.169Z,68.68
2022-12-22T19:29:15.694Z,68.84
2022-12-22T19:31:45.159Z,69.30
2022-12-22T19:34:20.754Z,68.93
2022-12-22T19:36:49.292Z,69.36
2022-12-22T19:39:17.800Z,69.18
2022-12-22T19:41:48.863Z,69.40
2022-12-22T19:44:24.344Z,69.44
2022-12-22T19:46:53.494Z,69.68
2022-12-22T19:49:25.257Z,69.81
2022-12-22T19:51:53.280Z,69.52
2022-12-22T19:54:21.420Z,69.88
2022-12-22T19:56:54.213Z,70.07
2022-12-22T19:59:32.551Z,70.19
2022-12-22T20:02:19.285Z,70.10
2022-12-22T20:04:49.087Z,70.29
2022-12-22T20:07:18.478Z,70.13
2022-12-22T20:09:47.839Z,70.55
2022-12-22T20:12:25.166Z,70.00
2022-12-22T20:14:53.695Z,70.49
2022-12-22T20:17:22.149Z,70.26
2022-12-22T20:19:51.607Z,70.34
2022-12-22T20:22:23.830Z,70.68
2022-12-22T20:24:54.433Z,70.53
2022-12-22T20:27:30.864Z,70.84
2022-12-22T20:29:58.878Z,70.92
2022-12-22T20:32:28.562Z,70.72
2022-12-22T20:34:58.221Z,70.83
2022-12-22T20:37:26.287Z,70.69
2022-12-22T20:39:54.339Z,70.95
2022-12-22T20:42:25.667Z,70.96
2022-12-22T20:45:02.258Z,70.66
2022-12-22T20:47:31.728Z,70.52
2022-12-22T20:50:01.198Z,70.75
2022-12-22T20:52:29.482Z,70.65
2022-12-22T20:54:57.509Z,71.01
2022-12-22T20:57:27.167Z,71.31
2022-12-22T20:59:56.632Z,70.76
2022-12-22T21:02:28.525Z,70.80
2022-12-22T21:04:57.117Z,71.15
2022-12-22T21:07:26.735Z,70.80
2022-12-22T21:09:54.813Z,71.04
2022-12-22T21:12:22.857Z,70.51
2022-12-22T21:14:51.824Z,70.92
2022-12-22T21:17:20.674Z,70.85
2022-12-22T21:19:48.859Z,71.06
2022-12-22T21:22:16.883Z,70.80
2022-12-22T21:24:46.323Z,71.00
2022-12-22T21:27:20.926Z,70.63
2022-12-22T21:29:49.166Z,71.13
2022-12-22T21:32:17.599Z,70.82
2022-12-22T21:34:45.708Z,70.56
2022-12-22T21:37:18.673Z,70.53
2022-12-22T21:39:48.194Z,70.26
2022-12-22T21:42:17.025Z,70.41
2022-12-22T21:44:45.930Z,70.46
2022-12-22T21:47:18.199Z,70.32
2022-12-22T21:49:46.232Z,70.05
2022-12-22T21:52:14.478Z,70.09
2022-12-22T21:54:42.807Z,70.22
2022-12-22T21:57:16.046Z,70.26
2022-12-22T21:59:44.132Z,70.54
2022-12-22T22:02:17.220Z,70.52
2022-12-22T22:04:53.764Z,70.60
2022-12-22T22:07:22.437Z,70.41
2022-12-22T22:09:50.488Z,71.11
2022-12-22T22:12:37.153Z,71.21
2022-12-22T22:15:07.915Z,70.78
2022-12-22T22:17:35.987Z,70.94
2022-12-22T22:20:04.871Z,71.07
2022-12-22T22:22:32.944Z,70.81
2022-12-22T22:25:00.973Z,71.10
2022-12-22T22:27:30.439Z,71.04
2022-12-22T22:29:58.612Z,71.52
2022-12-22T22:32:26.831Z,71.29
2022-12-22T22:34:54.869Z,71.39
2022-12-22T22:37:23.068Z,71.08
2022-12-22T22:39:51.341Z,70.98
2022-12-22T22:42:19.424Z,70.73
2022-12-22T22:44:48.916Z,71.30
2022-12-22T22:47:16.973Z,71.46
2022-12-22T22:49:45.013Z,71.71
2022-12-22T22:52:13.136Z,71.37
2022-12-22T22:54:41.191Z,71.31
2022-12-22T22:57:09.250Z,71.30
2022-12-22T22:59:37.903Z,71.96
2022-12-22T23:02:31.336Z,71.50
2022-12-22T23:04:59.473Z,71.80
2022-12-22T23:07:27.519Z,71.43
2022-12-22T23:09:55.614Z,71.47
2022-12-22T23:12:23.763Z,72.11
2022-12-22T23:14:51.784Z,71.69
2022-12-22T23:17:21.226Z,71.70
2022-12-22T23:19:49.263Z,71.90
2022-12-22T23:22:17.566Z,72.23
2022-12-22T23:24:45.598Z,72.29
2022-12-22T23:27:13.697Z,72.43
2022-12-22T23:29:41.770Z,72.67
2022-12-22T23:32:34.308Z,72.32
2022-12-22T23:35:03.723Z,72.19
2022-12-22T23:37:31.740Z,72.45
2022-12-22T23:40:25.126Z,72.52
2022-12-22T23:42:51.681Z,72.48
2022-12-22T23:45:22.886Z,72.42
2022-12-22T23:47:50.913Z,72.54
2022-12-22T23:50:20.525Z,72.45
2022-12-22T23:52:49.487Z,72.79
2022-12-22T23:55:18.070Z,73.08
2022-12-22T23:57:46.399Z,72.78
